createdAt,value
2022-12-22T00:03:08.139Z,55.73
2022-12-22T00:06:35.590Z,56.20
2022-12-22T00:10:02.168Z,55.83
2022-12-22T00:13:33.678Z,55.68
2022-12-22T00:17:01.428Z,56.13
2022-12-22T00:20:36.470Z,55.83
2022-12-22T00:24:03.211Z,56.90
2022-12-22T00:27:39.111Z,57.85
2022-12-22T00:31:05.988Z,59.58
2022-12-22T00:34:37.163Z,58.10
2022-12-22T00:38:03.938Z,58.45
2022-12-22T00:41:30.943Z,54.88
2022-12-22T00:44:57.854Z,53.73
2022-12-22T00:48:26.810Z,55.58
2022-12-22T00:51:54.890Z,51.80
2022-12-22T00:55:22.180Z,49.20
2022-12-22T00:58:49.549Z,49.33
2022-12-22T01:02:16.565Z,47.80
2022-12-22T01:05:44.052Z,49.33
2022-12-22T01:09:11.168Z,52.00
2022-12-22T01:12:41.919Z,51.80
2022-12-22T01:16:08.853Z,46.98
2022-12-22T01:19:35.746Z,33.35
2022-12-22T01:23:02.915Z,44.80
2022-12-22T01:29:57.520Z,46.10
2022-12-22T01:33:24.186Z,45.10
2022-12-22T01:36:51.125Z,42.05
2022-12-22T01:40:18.002Z,42.63
2022-12-22T01:43:47.926Z,40.85
2022-12-22T01:47:35.007Z,43.78
2022-12-22T01:51:01.853Z,45.88
2022-12-22T01:54:29.874Z,43.20
2022-12-22T01:57:57.232Z,42.90
2022-12-22T02:01:24.583Z,42.83
2022-12-22T02:04:55.562Z,46.15
2022-12-22T02:08:32.642Z,47.98
2022-12-22T02:12:06.351Z,44.17
2022-12-22T02:15:41.769Z,42.45
2022-12-22T02:19:13.492Z,43.65
2022-12-22T02:22:47.008Z,46.98
2022-12-22T02:26:19.533Z,46.15
2022-12-22T02:29:51.199Z,45.00
2022-12-22T02:33:18.272Z,44.13
2022-12-22T02:36:50.846Z,46.08
2022-12-22T02:40:23.730Z,45.65
2022-12-22T02:44:04.189Z,45.03
2022-12-22T02:47:37.240Z,44.48
2022-12-22T02:51:08.448Z,45.33
2022-12-22T02:54:36.868Z,43.70
2022-12-22T02:58:03.722Z,47.48
2022-12-22T03:01:31.365Z,46.65
2022-12-22T03:04:58.641Z,47.20
2022-12-22T03:08:25.794Z,48.03
2022-12-22T03:11:52.385Z,44.88
2022-12-22T03:15:19.033Z,48.93
2022-12-22T03:18:45.728Z,47.70
2022-12-22T03:22:12.879Z,45.70
2022-12-22T03:25:40.139Z,42.20
2022-12-22T03:28:52.671Z,42.43
2022-12-22T03:32:05.015Z,42.60
2022-12-22T03:35:17.605Z,43.90
2022-12-22T03:38:30.743Z,39.70
2022-12-22T03:41:57.774Z,42.05
2022-12-22T03:45:28.186Z,40.30
2022-12-22T03:48:40.376Z,44.15
2022-12-22T03:51:54.451Z,44.55
2022-12-22T03:55:07.965Z,43.65
2022-12-22T03:58:20.375Z,43.33
2022-12-22T04:01:33.270Z,41.93
2022-12-22T04:04:45.763Z,40.75
2022-12-22T04:07:58.180Z,43.05
2022-12-22T04:11:24.973Z,39.98
2022-12-22T04:14:37.200Z,40.38
2022-12-22T04:17:49.436Z,36.65
2022-12-22T04:21:01.808Z,37.05
2022-12-22T04:24:15.470Z,37.50
2022-12-22T04:27:27.888Z,38.28
2022-12-22T04:30:40.209Z,35.83
2022-12-22T04:33:52.765Z,33.08
2022-12-22T04:37:14.838Z,34.48
2022-12-22T04:40:19.711Z,36.95
2022-12-22T04:43:31.976Z,36.30
2022-12-22T04:46:44.230Z,35.13
2022-12-22T04:49:56.539Z,34.45
2022-12-22T04:53:08.913Z,33.03
2022-12-22T04:56:21.262Z,34.48
2022-12-22T04:59:33.779Z,36.63
2022-12-22T05:02:46.560Z,35.40
2022-12-22T05:05:59.063Z,35.05
2022-12-22T05:09:11.766Z,35.60
2022-12-22T05:12:38.874Z,37.05
2022-12-22T05:15:51.865Z,36.93
2022-12-22T05:19:04.015Z,34.80
2022-12-22T05:22:16.971Z,34.15
2022-12-22T05:25:34.806Z,33.98
2022-12-22T05:28:44.211Z,37.43
2022-12-22T05:31:56.426Z,35.68
2022-12-22T05:35:10.713Z,34.00
2022-12-22T05:38:23.071Z,35.45
2022-12-22T05:41:35.287Z,34.78
2022-12-22T05:44:47.844Z,35.85
2022-12-22T05:48:00.557Z,37.63
2022-12-22T05:51:14.357Z,36.35
2022-12-22T05:54:26.703Z,35.63
2022-12-22T05:57:39.475Z,35.00
2022-12-22T06:00:51.963Z,37.13
2022-12-22T06:04:04.988Z,36.45
2022-12-22T06:07:18.584Z,35.75
2022-12-22T06:10:31.958Z,35.83
2022-12-22T06:13:44.434Z,36.33
2022-12-22T06:16:56.810Z,38.78
2022-12-22T06:20:10.699Z,38.23
2022-12-22T06:23:23.229Z,40.73
2022-12-22T06:26:35.387Z,38.90
2022-12-22T06:29:49.219Z,35.00
2022-12-22T06:33:03.863Z,34.53
2022-12-22T06:36:18.076Z,37.30
2022-12-22T06:39:31.845Z,35.68
2022-12-22T06:43:13.461Z,35.85
2022-12-22T06:46:26.836Z,33.23
2022-12-22T06:49:42.488Z,37.93
2022-12-22T06:52:54.905Z,97.58
2022-12-22T06:56:07.389Z,51.28
2022-12-22T06:59:19.918Z,38.30
2022-12-22T07:02:32.704Z,36.95
2022-12-22T07:05:45.885Z,36.98
2022-12-22T07:08:58.676Z,39.18
2022-12-22T07:12:11.851Z,38.10
2022-12-22T07:15:24.394Z,41.73
2022-12-22T07:18:39.228Z,36.05
2022-12-22T07:21:51.485Z,37.30
2022-12-22T07:25:04.063Z,37.48
2022-12-22T07:28:20.603Z,36.05
2022-12-22T07:31:30.800Z,33.70
2022-12-22T07:34:43.069Z,33.98
2022-12-22T07:37:57.233Z,34.38
2022-12-22T07:41:14.182Z,35.68
2022-12-22T07:44:26.823Z,33.33
2022-12-22T07:47:39.129Z,31.38
2022-12-22T07:50:51.341Z,31.78
2022-12-22T07:54:04.736Z,37.30
2022-12-22T07:57:17.282Z,34.50
2022-12-22T08:00:31.415Z,34.20
2022-12-22T08:03:43.742Z,32.55
2022-12-22T08:06:56.394Z,30.63
2022-12-22T08:10:09.407Z,32.15
2022-12-22T08:13:21.665Z,36.43
2022-12-22T08:16:34.817Z,33.43
2022-12-22T08:19:48.800Z,33.70
2022-12-22T08:23:02.374Z,31.88
2022-12-22T08:26:19.670Z,33.35
2022-12-22T08:29:36.203Z,36.00
2022-12-22T08:32:51.700Z,32.95
2022-12-22T08:36:08.244Z,33.50
2022-12-22T08:39:20.824Z,33.63
2022-12-22T08:42:34.609Z,37.23
2022-12-22T08:45:47.832Z,35.48
2022-12-22T08:49:01.781Z,36.65
2022-12-22T08:52:18.348Z,40.30
2022-12-22T08:55:29.063Z,41.03
2022-12-22T08:58:41.319Z,40.60
2022-12-22T09:01:54.393Z,44.10
2022-12-22T09:05:06.654Z,41.20
2022-12-22T09:08:19.009Z,39.53
2022-12-22T09:11:32.284Z,37.93
2022-12-22T09:14:44.653Z,38.78
2022-12-22T09:17:57.705Z,39.30
2022-12-22T09:21:10.174Z,38.08
2022-12-22T09:24:23.493Z,37.73
2022-12-22T09:27:38.065Z,37.53
2022-12-22T09:30:55.257Z,38.88
2022-12-22T09:34:10.701Z,38.88
2022-12-22T09:37:24.052Z,40.98
2022-12-22T09:40:37.972Z,38.15
2022-12-22T09:43:50.988Z,39.53
2022-12-22T09:47:07.625Z,37.55
2022-12-22T09:50:25.376Z,38.95
2022-12-22T09:53:39.212Z,38.65
2022-12-22T09:56:51.617Z,39.25
2022-12-22T10:00:11.492Z,38.20
2022-12-22T10:03:37.748Z,37.85
2022-12-22T10:06:56.849Z,39.70
2022-12-22T10:10:26.166Z,41.75
2022-12-22T10:13:40.142Z,147.10
2022-12-22T10:16:52.886Z,43.08
2022-12-22T10:20:29.896Z,42.98
2022-12-22T10:23:49.380Z,42.03
2022-12-22T10:27:08.488Z,44.13
2022-12-22T10:30:32.991Z,47.23
2022-12-22T10:33:47.962Z,45.75
2022-12-22T10:37:07.097Z,44.65
2022-12-22T10:40:30.650Z,55.65
2022-12-22T10:43:51.027Z,46.60
2022-12-22T10:47:15.453Z,51.93
2022-12-22T10:50:24.707Z,48.63
2022-12-22T10:53:54.682Z,49.48
2022-12-22T10:57:33.414Z,50.20
2022-12-22T11:00:47.353Z,55.98
2022-12-22T11:03:59.905Z,53.55
2022-12-22T11:07:17.136Z,58.53
2022-12-22T11:10:39.022Z,57.28
2022-12-22T11:14:18.669Z,56.80
2022-12-22T11:17:38.246Z,54.20
2022-12-22T11:21:04.329Z,54.33
2022-12-22T11:24:28.961Z,60.50
2022-12-22T11:27:48.305Z,51.98
2022-12-22T11:31:12.098Z,51.95
2022-12-22T11:34:39.188Z,49.98
2022-12-22T11:37:56.437Z,49.93
2022-12-22T11:44:44.055Z,50.90
2022-12-22T11:48:03.011Z,49.15
2022-12-22T11:51:27.299Z,47.45
2022-12-22T11:55:08.941Z,48.90
2022-12-22T11:58:43.618Z,49.78
2022-12-22T12:02:20.735Z,57.63
2022-12-22T12:06:09.382Z,51.08
2022-12-22T12:12:50.005Z,49.65
2022-12-22T12:16:07.770Z,46.35
2022-12-22T12:20:12.643Z,58.53
2022-12-22T12:23:48.026Z,48.70
2022-12-22T12:27:07.636Z,47.65
2022-12-22T12:30:39.864Z,46.73
2022-12-22T12:33:47.289Z,55.88
2022-12-22T12:37:03.193Z,55.53
2022-12-22T12:40:29.358Z,58.18
2022-12-22T12:43:42.979Z,64.30
2022-12-22T12:47:11.963Z,64.68
2022-12-22T12:50:41.657Z,65.15
2022-12-22T12:54:28.032Z,64.25
2022-12-22T12:57:54.606Z,62.13
2022-12-22T13:01:07.283Z,63.13
2022-12-22T13:04:35.487Z,64.55
2022-12-22T13:08:26.978Z,65.18
2022-12-22T13:15:07.355Z,62.00
2022-12-22T13:18:50.807Z,61.58
2022-12-22T13:22:01.915Z,62.25
2022-12-22T13:25:22.580Z,65.83
2022-12-22T13:28:35.966Z,62.75
2022-12-22T13:31:53.402Z,62.28
2022-12-22T13:35:37.499Z,70.08
2022-12-22T13:38:39.760Z,76.30
2022-12-22T13:41:54.471Z,69.55
2022-12-22T13:45:10.807Z,64.00
2022-12-22T13:48:29.146Z,60.83
2022-12-22T13:51:44.658Z,62.10
2022-12-22T13:54:57.185Z,62.18
2022-12-22T13:58:15.856Z,64.55
2022-12-22T14:01:28.710Z,65.18
2022-12-22T14:04:42.868Z,64.00
2022-12-22T14:08:10.454Z,64.98
2022-12-22T14:14:38.237Z,64.88
2022-12-22T14:17:53.218Z,66.98
2022-12-22T14:21:05.579Z,64.30
2022-12-22T14:24:23.488Z,61.33
2022-12-22T14:27:43.255Z,64.15
2022-12-22T14:30:59.957Z,64.53
2022-12-22T14:34:32.682Z,67.63
2022-12-22T14:37:44.939Z,62.80
2022-12-22T14:40:59.263Z,61.25
2022-12-22T14:44:15.532Z,64.50
2022-12-22T14:47:31.808Z,64.83
2022-12-22T14:50:48.585Z,67.15
2022-12-22T14:54:04.229Z,66.40
2022-12-22T14:57:23.492Z,69.65
2022-12-22T15:00:42.652Z,66.23
2022-12-22T15:04:10.033Z,69.80
2022-12-22T15:10:47.444Z,65.55
2022-12-22T15:14:00.174Z,63.10
2022-12-22T15:17:26.239Z,61.65
2022-12-22T15:20:39.547Z,50.15
2022-12-22T15:23:53.352Z,43.68
2022-12-22T15:27:05.545Z,53.53
2022-12-22T15:30:28.829Z,53.48
2022-12-22T15:33:41.242Z,61.08
2022-12-22T15:36:53.602Z,60.43
2022-12-22T15:40:06.545Z,64.70
2022-12-22T15:46:36.190Z,33.70
2022-12-22T15:49:49.352Z,16.40
2022-12-22T15:53:04.911Z,17.60
2022-12-22T15:56:39.354Z,9.53
2022-12-22T16:04:12.236Z,9.03
2022-12-22T16:07:25.151Z,8.98
2022-12-22T16:10:40.261Z,8.40
2022-12-22T16:13:56.493Z,7.98
2022-12-22T16:20:17.975Z,11.25
2022-12-22T16:23:34.079Z,9.68
2022-12-22T16:26:51.233Z,9.15
2022-12-22T16:30:03.922Z,9.38
2022-12-22T16:33:18.717Z,25.40
2022-12-22T16:36:30.906Z,30.73
2022-12-22T16:39:43.189Z,22.78
2022-12-22T16:46:34.154Z,10.13
2022-12-22T16:49:46.453Z,7.33
2022-12-22T16:52:58.571Z,7.15
2022-12-22T16:56:13.479Z,6.93
2022-12-22T16:59:25.744Z,6.90
2022-12-22T17:02:40.585Z,7.25
2022-12-22T17:05:56.102Z,6.23
2022-12-22T17:09:11.150Z,6.03
2022-12-22T17:12:28.509Z,5.25
2022-12-22T17:15:41.277Z,5.20
2022-12-22T17:18:53.874Z,5.63
2022-12-22T17:22:06.926Z,5.35
2022-12-22T17:25:26.323Z,5.73
2022-12-22T17:28:42.355Z,5.28
2022-12-22T17:31:56.920Z,5.43
2022-12-22T17:35:10.262Z,6.20
2022-12-22T17:38:27.079Z,5.95
2022-12-22T17:44:51.672Z,5.80
2022-12-22T17:48:04.269Z,5.50
2022-12-22T17:51:24.915Z,5.75
2022-12-22T17:54:37.873Z,5.23
2022-12-22T17:57:52.059Z,5.38
2022-12-22T18:01:04.493Z,5.40
2022-12-22T18:04:16.762Z,5.78
2022-12-22T18:07:30.877Z,5.70
2022-12-22T18:10:45.881Z,7.68
2022-12-22T18:13:59.252Z,7.43
2022-12-22T18:17:13.124Z,7.75
2022-12-22T18:20:28.694Z,6.23
2022-12-22T18:23:49.563Z,6.40
2022-12-22T18:26:57.638Z,6.30
2022-12-22T18:30:21.632Z,6.93
2022-12-22T18:33:33.831Z,6.50
2022-12-22T18:36:47.744Z,6.83
2022-12-22T18:40:00.011Z,7.48
2022-12-22T18:43:17.964Z,6.28
2022-12-22T18:46:31.887Z,6.93
2022-12-22T18:49:44.402Z,6.70
2022-12-22T18:52:58.419Z,7.00
2022-12-22T18:56:13.342Z,6.60
2022-12-22T18:59:33.628Z,6.65
2022-12-22T19:02:46.033Z,6.83
2022-12-22T19:05:58.603Z,5.53
2022-12-22T19:09:15.052Z,6.60
2022-12-22T19:12:28.824Z,7.05
2022-12-22T19:15:43.943Z,6.90
2022-12-22T19:18:57.961Z,6.40
2022-12-22T19:22:10.286Z,6.95
2022-12-22T19:25:25.268Z,6.03
2022-12-22T19:28:41.118Z,6.95
2022-12-22T19:31:53.744Z,9.38
2022-12-22T19:35:06.218Z,7.88
2022-12-22T19:38:28.180Z,6.80
2022-12-22T19:41:49.921Z,6.33
2022-12-22T19:45:08.496Z,6.88
2022-12-22T19:48:24.775Z,7.35
2022-12-22T19:51:38.702Z,6.90
2022-12-22T19:54:52.275Z,6.28
2022-12-22T19:58:07.664Z,5.78
2022-12-22T20:01:21.717Z,7.03
2022-12-22T20:04:37.747Z,7.90
2022-12-22T20:07:51.506Z,6.03
2022-12-22T20:11:05.965Z,6.40
2022-12-22T20:14:22.271Z,6.43
2022-12-22T20:17:36.966Z,5.55
2022-12-22T20:20:57.552Z,5.83
2022-12-22T20:24:15.549Z,5.63
2022-12-22T20:27:35.319Z,6.30
2022-12-22T20:30:49.557Z,6.48
2022-12-22T20:34:02.518Z,6.28
2022-12-22T20:37:21.729Z,6.23
2022-12-22T20:40:37.049Z,5.85
2022-12-22T20:43:49.500Z,5.70
2022-12-22T20:47:01.516Z,6.58
2022-12-22T20:50:25.861Z,6.38
2022-12-22T20:53:38.494Z,5.93
2022-12-22T20:56:51.655Z,5.88
2022-12-22T21:00:04.416Z,6.23
2022-12-22T21:03:17.758Z,6.18
2022-12-22T21:06:36.681Z,5.60
2022-12-22T21:09:49.916Z,6.23
2022-12-22T21:13:04.648Z,6.33
2022-12-22T21:16:26.461Z,6.85
2022-12-22T21:19:38.679Z,5.70
2022-12-22T21:22:51.007Z,5.75
2022-12-22T21:26:04.565Z,6.00
2022-12-22T21:29:24.274Z,13.70
2022-12-22T21:32:36.470Z,6.55
2022-12-22T21:35:48.813Z,7.48
2022-12-22T21:39:03.797Z,6.15
2022-12-22T21:42:20.284Z,5.58
2022-12-22T21:45:41.007Z,6.75
2022-12-22T21:48:50.813Z,6.45
2022-12-22T21:52:03.750Z,6.05
2022-12-22T21:55:17.373Z,6.93
2022-12-22T21:58:30.285Z,6.58
2022-12-22T22:01:45.289Z,5.95
2022-12-22T22:04:58.219Z,5.85
2022-12-22T22:08:14.137Z,6.20
2022-12-22T22:11:30.300Z,6.83
2022-12-22T22:14:44.908Z,6.80
2022-12-22T22:18:02.986Z,6.60
2022-12-22T22:21:18.410Z,6.58
2022-12-22T22:24:30.905Z,6.30
2022-12-22T22:27:47.664Z,7.45
2022-12-22T22:30:59.557Z,6.78
2022-12-22T22:34:12.516Z,5.63
2022-12-22T22:37:24.632Z,6.53
2022-12-22T22:40:36.825Z,6.33
2022-12-22T22:43:48.849Z,5.40
2022-12-22T22:47:01.068Z,6.55
2022-12-22T22:50:15.572Z,6.05
2022-12-22T22:53:27.656Z,5.75
2022-12-22T22:56:39.947Z,6.10
2022-12-22T22:59:54.798Z,5.20
2022-12-22T23:03:07.975Z,5.10
2022-12-22T23:06:20.917Z,4.95
2022-12-22T23:09:32.964Z,5.78
2022-12-22T23:12:44.988Z,5.25
2022-12-22T23:16:04.235Z,4.88
2022-12-22T23:19:16.394Z,4.35
2022-12-22T23:22:28.546Z,4.08
2022-12-22T23:25:40.702Z,4.45
2022-12-22T23:28:59.240Z,4.65
2022-12-22T23:32:09.782Z,4.50
2022-12-22T23:35:21.980Z,4.73
2022-12-22T23:38:34.034Z,4.48
2022-12-22T23:41:46.016Z,4.30
2022-12-22T23:44:58.176Z,4.60
2022-12-22T23:48:10.702Z,5.23
2022-12-22T23:51:22.834Z,4.95
2022-12-22T23:54:34.903Z,5.05
2022-12-22T23:57:46.904Z,4.93
